Jump to main content.



IN\Recent Actions\ a. Draft Permits from Last 30 Days

Can be sorted descendingEPA Draft Review BeginsFacility NameCan be sorted ascendingPermit TypeCan be sorted ascendingPermit VersionCan be sorted ascendingSIC CodeCan be sorted ascendingPublic Notice BeginsCan be sorted ascending or descendingPermit I.D.Plant I.D.Facility AddressFacility CityCan be sorted ascending
Green ball Icon01/31/2015Better Way Partners, LLC dba Better Way ProductsTitle VSig Permit Mod308901/31/2015039-351340014170891 CR 23New Paris
Green ball Icon01/27/2015North Vernon Industry CorporationFESOPTransition from Title V344202/03/2015079-34678000183750 4th StNorth Vernon
Green ball Icon01/27/2015Gavilon Fertilizer LLCMSOPNew Construction MSOP (Minor PSD/EO) (12519101/29/2015003-35185004043300 Bennett StreetYoder
Green ball IconBlue right arrow Icon01/27/2015Progress Rail Manufacturing CorporationTitle VTransition from FESOP374301/28/2015035-35218000893500 S Cowan RdMuncie
Green ball Icon01/27/2015Progress Rail Manufacturing CorporationFESOPSig Permit Rev374301/28/2015035-35165000893500 S Cowan RdMuncie
Green ball Icon01/27/2015RC TrailersFESOPSig Permit Rev379901/27/2015039-352150059851790 CR 39Middlebury
Green ball Icon01/26/2015ANR Pipeline Company - LaGrange Compressor StationTitle VSig Permit Mod492202/02/2015087-35240000042255 W US 20LaGrange
Green ball Icon01/26/2015ANR Pipeline Company - LaGrange Compressor StationTitle VSig Source Mod492202/02/2015087-35179000042255 W US 20LaGrange
Green ball Icon01/26/2015L & L Bulk Transport IncorporatedSSOANew Source Review (120)144201/28/2015109-351330006811355 N Mann RoadMooresville
Green ball Icon01/26/2015Joe W. Morgan, Inc.FESOPRenewal509301/26/2015163-34573000711719 West LouisianaEvansville
Green ball Icon01/23/2015Bemis Company IncorporatedTitle VSig Source Mod267301/26/2015167-34018000331350 N Fruitridge AveTerre Haute
Green ball Icon01/22/2015Aero Metals, Inc.FESOPSig Permit Rev332401/26/2015091-34971000741201 E LincolnwayLa Porte
Green ball Icon01/22/2015General Motors LLCTitle VSig Source Mod336301/24/2015093-3479700007105 GM DrBedford
Green ball IconGreen right arrow Icon01/22/2015General Motors LLCTitle VRenewal336301/24/2015093-3347400007105 GM DrBedford
Green ball IconGreen right arrow Icon01/21/2015Four Woods Laminating, Inc.Title VRenewal249901/26/2015087-34476000367550 W 500 STopeka
Green ball Icon01/21/2015Precision Soya of Indiana LLCMSOPNew Construction MSOP (Minor PSD/EO) (1272301/24/2015179-35030000123906 W 100 NBluffton
Green ball Icon01/20/2015Helena Chemical Company-Huntington TerminalFESOPSig Permit Rev287501/20/2015069-3533600084321 Thurman Poe WayHuntington
Green ball Icon01/20/2015Summit Seed Coatings IndianaFESOPNew Source FESOP (Minor PSD/EO) (120)72301/20/2015175-3525200029410 S High StreetSalem
Green ball Icon01/16/2015BAE Systems Controls IncMSOPNew Construction MSOP (Minor PSD/EO) (12382901/20/2015003-34960004024250 Airport EXPYFt Wayne
Green ball Icon01/16/2015Highland Ridge RV IncMSOPNew Construction MSOP (Minor PSD/EO) (12379201/19/2015087-34865006793195 N SR 5 & 0925 N SR 5Shipshewana
Green ball Icon01/16/2015J.P., Inc dba Jasper Plastics SolutionsTitle VSig Permit Mod308901/19/2015085-3509600013501 W Railroad AveSyracuse
Green ball Icon01/16/2015J.P., Inc dba Jasper Plastics SolutionsTitle VSig Source Mod308901/19/2015085-3509200013501 W Railroad AveSyracuse
Green ball Icon01/14/2015LaGrange ProductsMSOPRenewal344301/19/2015151-3465700036607 S Wayne StFremont
Green ball IconGreen right arrow Icon01/14/2015U.S. Steel - East Chicago Tin ProductsTitle VRenewal331301/17/2015089-3412500300101 E 129th StEast Chicago
Green ball Icon01/13/2015Parker Hannifin CorporationFESOPSig Permit Rev226901/15/2015123-34556000152002 Main StTell City
Green ball Icon01/12/2015Novae CorporationFESOPTransition from Registration379901/13/2015069-35005000661 Novae PkwyMarkle
Green ball Icon01/12/2015Metalworking LubricantsFESOPRenewal299211/17/2014097-32513001391509 S Senate AveIndianapolis
Green ball Icon01/08/2015Webb Wheel Products, Inc.FESOPNew Source FESOP (Minor PSD/EO) (120)371401/12/2015123-35067000249840 W State Road 66Tell City
Green ball Icon01/08/2015C & J Plating and GrindingMSOPRenewal347101/09/2015035-3512300087411 E 3rd StMuncie
Green ball Icon01/06/2015The Andersons Clymers Ethanol, LLCTitle VSig Source Mod286901/09/2015017-35176000233389 W CR 300 SLogansport
Green ball Icon01/06/2015The Andersons Clymers Ethanol, LLCTitle VSig Permit Mod286901/09/2015017-35241000233389 W CR 300 SLogansport
Green ball Icon01/05/2015CLM Pallet Recycling, Inc.FESOPRenewal244801/02/2015059-35205000373103 W 1000 NFortville
Green ball Icon12/31/2014Vehicle Service GroupFESOPNew Source FESOP (Minor PSD/EO) (120)353401/06/2015077-34980000112700 Lanier DrMadison
Green ball Icon12/31/2014Eco Services Operations LLCTitle VSig Source Mod281901/05/2015089-35105002422000 Michigan StHammond
Green ball Icon12/31/2014Eco Services Operations LLCTitle VSig Permit Mod281901/05/2015089-35209002422000 Michigan StHammond
Green ball Icon12/31/2014Cives Steel Company Midwest DivisionFESOPNew Source FESOP (Minor PSD/EO) (120)344101/03/2015181-3510600056337 N 700 WestWolcott
Green ball Icon12/31/2014Dometic CorporationFESOPNew Source FESOP (Minor PSD/EO) (120)363201/02/2015039-35048006992320 Industrial ParkwayElkhart
Green ball IconGreen right arrow Icon12/29/2014Allison Transmission, Inc. - Speedway Main CampusTitle VRenewal371412/29/2014097-3466700310One Allison WayIndianapolis
Green ball Icon12/29/2014General Motors LLC Fort Wayne AssemblyTitle VSig Permit Mod371112/29/2014003-349850003612200 Lafayette Center RdRoanoke
Green ball Icon12/29/2014General Motors LLC Fort Wayne AssemblyTitle VSig Source Mod371112/29/2014003-348560003612200 Lafayette Center RdRoanoke
Green ball Icon12/29/2014Allison Transmission, Inc. - Speedway Main CampusTitle VSig Source Mod371412/29/2014097-3482000310One Allison WayIndianapolis
Green ball Icon12/24/2014Tradebe Treatment and Recycling LLCTitle VSig Source Mod495312/30/2014089-34432003454343 Kennedy AveEast Chicago
Green ball Icon12/24/2014Tradebe Treatment and Recycling LLCTitle VSig Permit Mod495312/30/2014089-34503003454343 Kennedy AveEast Chicago
Green ball Icon12/24/2014AT&TSSOANew Source Review (120)481312/29/2014141-3504100089222 S Scott StSouth Bend
Green ball Icon12/23/2014Indiana Michigan Power dba AEP- RockportTitle VSig Permit Mod491101/01/2015147-34888000202791 US HWY 231 NRockport
Green ball Icon12/23/2014Johns ManvilleFESOPSig Permit Rev308612/26/2014099-35004000421215 W Dewey StBremen
Green ball Icon12/22/2014Trunkline Gas Company - North Judson Compressor StationTitle VSig Permit Mod492201/01/2015149-34783000056580 S 200 EKnox
Green ball Icon12/22/2014MasterBrand Cabinets, IncTitle VSig Permit Mod243412/29/2014039-34964000141002 Eisenhower Dr NGoshen
Green ball Icon12/22/2014MasterBrand Cabinets, IncTitle VSig Source Mod243412/29/2014039-34897000141002 Eisenhower Dr NGoshen
Green ball Icon12/22/2014Huhtamaki IncFESOPTransition from SSOA265612/21/2014053-34735000541629 S Joaquin DrMarion


Form name = $$ViewTemplateDefault

Local Navigation



Jump to main content.